Time;durP1;ratioP1;P1;durP2;ratioP2;P2;SDS_P1;SDS_P2;PMS_P1;PMS_P2;Temp;Humidity;BMP_temperature;BMP_pressure;BME280_temperature;BME280_humidity;BME280_pressure;Samples;Min_cycle;Max_cycle;Signal;HPM_P1;HPM_P2
2022/11/11 00:01:27;;;;;;;4.97;2.50;;;;;;;;;;5063278;28;20487;-75
2022/11/11 00:04:18;;;;;;;4.60;2.50;;;;;;;;;;5059942;28;20457;-74
2022/11/11 00:07:10;;;;;;;7.30;3.00;;;;;;;;;;5055572;28;20449;-75
2022/11/11 00:09:59;;;;;;;7.90;2.80;;;;;;;;;;5058378;28;20466;-74
2022/11/11 00:12:51;;;;;;;8.77;4.10;;;;;;;;;;5060802;28;20477;-74
2022/11/11 00:15:52;;;;;;;5.53;3.60;;;;;;;;;;5056912;28;20458;-74
2022/11/11 00:25:19;;;;;;;6.40;4.40;;;;;;;;;;4991961;28;20460;-74
2022/11/11 00:28:09;;;;;;;6.30;4.23;;;;;;;;;;4983532;28;20464;-74
2022/11/11 00:31:04;;;;;;;8.07;4.90;;;;;;;;;;5054526;28;20616;-74
2022/11/11 00:33:54;;;;;;;9.20;4.50;;;;;;;;;;5067674;28;20464;-75
2022/11/11 00:36:42;;;;;;;6.60;5.33;;;;;;;;;;5063983;28;20580;-75
2022/11/11 00:39:32;;;;;;;9.13;5.40;;;;;;;;;;5069197;28;20459;-74
2022/11/11 00:42:23;;;;;;;5.00;4.60;;;;;;;;;;5075998;28;20480;-74
2022/11/11 00:45:14;;;;;;;6.03;4.83;;;;;;;;;;5078520;28;20469;-74
2022/11/11 00:51:21;;;;;;;5.90;4.73;;;;;;;;;;5074805;28;20465;-74
2022/11/11 00:54:11;;;;;;;11.30;5.83;;;;;;;;;;5074163;28;20483;-74
2022/11/11 00:57:00;;;;;;;6.83;5.63;;;;;;;;;;5069536;28;20852;-74
2022/11/11 00:59:48;;;;;;;7.40;5.20;;;;;;;;;;5072953;28;20476;-74
2022/11/11 01:02:37;;;;;;;6.23;5.43;;;;;;;;;;5074332;28;20481;-74
2022/11/11 01:05:37;;;;;;;6.10;5.60;;;;;;;;;;5062994;28;20468;-74
2022/11/11 01:08:27;;;;;;;7.53;6.43;;;;;;;;;;5065283;28;20448;-74
2022/11/11 01:11:17;;;;;;;10.10;5.90;;;;;;;;;;5056693;28;20495;-74
2022/11/11 01:14:17;;;;;;;6.40;5.50;;;;;;;;;;5059551;28;20621;-75
2022/11/11 01:17:11;;;;;;;6.60;5.90;;;;;;;;;;5077268;28;20464;-74
2022/11/11 01:20:05;;;;;;;10.23;6.03;;;;;;;;;;5074628;28;20892;-74
2022/11/11 01:22:54;;;;;;;8.17;5.80;;;;;;;;;;5077574;28;21019;-74
2022/11/11 01:25:48;;;;;;;7.43;5.57;;;;;;;;;;5077158;28;20457;-74
2022/11/11 01:28:39;;;;;;;10.07;5.63;;;;;;;;;;5071839;28;20462;-73
2022/11/11 01:31:29;;;;;;;8.90;6.30;;;;;;;;;;5080879;28;20555;-74
2022/11/11 01:34:19;;;;;;;7.93;6.17;;;;;;;;;;5080713;28;20456;-74
2022/11/11 01:37:08;;;;;;;6.53;5.97;;;;;;;;;;5081610;28;20508;-74
2022/11/11 01:40:03;;;;;;;8.97;6.30;;;;;;;;;;5079168;28;20441;-74
2022/11/11 01:43:11;;;;;;;7.13;5.50;;;;;;;;;;5077620;28;20564;-74
2022/11/11 01:46:05;;;;;;;7.87;6.10;;;;;;;;;;5068829;28;20550;-74
2022/11/11 01:52:10;;;;;;;9.37;5.70;;;;;;;;;;5078528;28;20534;-74
2022/11/11 01:55:01;;;;;;;6.00;5.43;;;;;;;;;;5077562;28;20453;-74
2022/11/11 01:58:04;;;;;;;5.77;5.20;;;;;;;;;;5076149;28;20477;-74
2022/11/11 02:01:03;;;;;;;6.30;5.20;;;;;;;;;;5072425;28;20856;-74
2022/11/11 02:07:12;;;;;;;11.67;6.63;;;;;;;;;;5074014;28;20820;-74
2022/11/11 02:10:09;;;;;;;6.43;5.53;;;;;;;;;;5077771;28;20469;-74
2022/11/11 02:16:06;;;;;;;7.20;6.27;;;;;;;;;;5074375;28;20580;-74
2022/11/11 02:18:55;;;;;;;7.83;5.87;;;;;;;;;;5076497;28;21443;-74
2022/11/11 02:21:45;;;;;;;7.87;5.73;;;;;;;;;;5065868;28;20490;-75
2022/11/11 02:24:47;;;;;;;6.53;5.80;;;;;;;;;;5079598;28;20512;-74
2022/11/11 02:27:40;;;;;;;8.97;6.57;;;;;;;;;;5074615;28;20540;-74
2022/11/11 02:30:36;;;;;;;8.13;7.33;;;;;;;;;;5073795;28;20473;-74
2022/11/11 02:33:26;;;;;;;6.80;6.10;;;;;;;;;;5077491;28;20452;-74
2022/11/11 02:36:16;;;;;;;8.80;7.00;;;;;;;;;;5076269;28;20830;-74
2022/11/11 02:39:06;;;;;;;9.30;6.20;;;;;;;;;;5071705;28;21310;-75
2022/11/11 02:42:09;;;;;;;11.10;6.23;;;;;;;;;;5074885;28;20500;-74
2022/11/11 02:44:59;;;;;;;7.33;5.67;;;;;;;;;;5076338;28;20942;-74
2022/11/11 02:47:47;;;;;;;7.70;5.30;;;;;;;;;;5077135;28;20449;-74
2022/11/11 02:50:39;;;;;;;5.47;4.97;;;;;;;;;;5071301;28;20481;-74
2022/11/11 02:53:33;;;;;;;6.83;5.03;;;;;;;;;;5071989;28;20486;-75
2022/11/11 02:59:34;;;;;;;7.23;5.40;;;;;;;;;;5063764;28;20538;-74
2022/11/11 03:02:26;;;;;;;8.13;5.40;;;;;;;;;;5059075;28;20630;-74
2022/11/11 03:05:17;;;;;;;8.70;4.77;;;;;;;;;;5071882;28;20469;-74
2022/11/11 03:08:06;;;;;;;8.43;5.27;;;;;;;;;;5066516;28;20457;-74
2022/11/11 03:10:59;;;;;;;10.10;5.50;;;;;;;;;;5070683;28;20481;-75
2022/11/11 03:13:49;;;;;;;7.23;5.63;;;;;;;;;;5075605;28;21320;-74
2022/11/11 03:21:03;;;;;;;5.67;4.70;;;;;;;;;;5094697;28;20491;-74
2022/11/11 03:23:13;;;;;;;8.43;5.00;;;;;;;;;;5095833;28;20473;-73
2022/11/11 03:26:03;;;;;;;6.23;5.07;;;;;;;;;;5093138;28;20456;-74
2022/11/11 03:28:52;;;;;;;9.03;4.97;;;;;;;;;;5082821;28;20442;-73
2022/11/11 03:31:41;;;;;;;6.63;5.50;;;;;;;;;;5075971;28;20478;-73
2022/11/11 03:34:32;;;;;;;7.40;5.53;;;;;;;;;;5078139;28;20826;-74
2022/11/11 03:40:40;;;;;;;8.17;5.27;;;;;;;;;;5082863;28;20481;-74
2022/11/11 03:43:34;;;;;;;6.50;5.10;;;;;;;;;;5079046;28;20885;-74
2022/11/11 03:46:25;;;;;;;9.20;5.10;;;;;;;;;;5066193;28;20536;-74
2022/11/11 03:49:13;;;;;;;6.33;4.70;;;;;;;;;;5075266;28;20461;-74
2022/11/11 03:52:03;;;;;;;8.00;5.30;;;;;;;;;;5074253;28;20850;-73
2022/11/11 03:54:52;;;;;;;8.13;4.97;;;;;;;;;;5072795;28;20948;-74
2022/11/11 03:57:44;;;;;;;8.47;5.40;;;;;;;;;;5069773;28;20461;-73
2022/11/11 04:00:32;;;;;;;6.73;5.30;;;;;;;;;;5074278;28;20973;-73
2022/11/11 04:16:07;;;;;;;6.40;5.37;;;;;;;;;;5075887;28;20453;-74
2022/11/11 04:22:11;;;;;;;9.20;5.40;;;;;;;;;;5074517;28;20560;-73
2022/11/11 04:31:23;;;;;;;8.23;5.30;;;;;;;;;;5070522;28;20485;-73
2022/11/11 04:34:15;;;;;;;9.50;5.70;;;;;;;;;;5074397;28;20453;-73
2022/11/11 04:37:03;;;;;;;8.93;6.20;;;;;;;;;;5061123;28;20461;-74
2022/11/11 04:43:08;;;;;;;7.70;6.43;;;;;;;;;;5064580;28;20481;-73
2022/11/11 04:46:06;;;;;;;7.97;5.80;;;;;;;;;;5070580;28;20465;-74
2022/11/11 04:48:54;;;;;;;8.67;6.07;;;;;;;;;;5073556;28;20478;-74
2022/11/11 04:58:12;;;;;;;6.40;5.37;;;;;;;;;;5067169;28;20445;-74
2022/11/11 05:01:02;;;;;;;8.20;5.67;;;;;;;;;;5066594;28;20485;-74
2022/11/11 05:03:49;;;;;;;8.80;5.50;;;;;;;;;;5071668;28;20456;-74
2022/11/11 05:09:48;;;;;;;10.10;5.97;;;;;;;;;;5072292;28;20453;-74
2022/11/11 05:12:42;;;;;;;10.57;6.70;;;;;;;;;;5070868;28;20856;-74
2022/11/11 05:21:53;;;;;;;10.17;6.67;;;;;;;;;;5078356;28;20522;-74
2022/11/11 05:27:53;;;;;;;9.37;6.53;;;;;;;;;;5083305;28;21006;-74
2022/11/11 05:30:45;;;;;;;7.43;6.40;;;;;;;;;;5080221;28;20466;-74
2022/11/11 05:33:35;;;;;;;7.83;6.10;;;;;;;;;;5076644;28;20463;-74
2022/11/11 05:36:28;;;;;;;7.67;6.77;;;;;;;;;;5080126;28;20983;-74
2022/11/11 05:39:20;;;;;;;6.90;6.17;;;;;;;;;;5076087;28;25320;-74
2022/11/11 05:42:13;;;;;;;9.17;6.50;;;;;;;;;;5073889;28;20484;-74
2022/11/11 05:45:02;;;;;;;8.13;6.70;;;;;;;;;;5077074;28;20454;-74
2022/11/11 05:48:04;;;;;;;9.43;7.07;;;;;;;;;;5072811;28;20936;-74
2022/11/11 05:50:54;;;;;;;8.93;6.97;;;;;;;;;;5067576;28;21015;-74
2022/11/11 05:53:46;;;;;;;9.67;7.20;;;;;;;;;;5076309;28;20460;-74
2022/11/11 05:56:37;;;;;;;8.90;7.27;;;;;;;;;;5079705;28;20441;-74
2022/11/11 05:59:31;;;;;;;8.83;7.23;;;;;;;;;;5075516;28;20481;-74
2022/11/11 06:02:20;;;;;;;9.93;7.70;;;;;;;;;;5069235;28;20480;-74
2022/11/11 06:05:10;;;;;;;7.97;7.27;;;;;;;;;;5075332;28;20482;-74
2022/11/11 06:07:59;;;;;;;10.60;7.10;;;;;;;;;;5076343;28;20449;-74
2022/11/11 06:10:52;;;;;;;11.37;8.30;;;;;;;;;;5072079;28;20497;-74
2022/11/11 06:13:44;;;;;;;13.80;8.03;;;;;;;;;;5076095;28;20453;-74
2022/11/11 06:16:35;;;;;;;11.77;9.10;;;;;;;;;;5053773;28;20482;-74
2022/11/11 06:19:26;;;;;;;9.70;8.70;;;;;;;;;;5071874;28;20507;-74
2022/11/11 06:22:55;;;;;;;11.00;9.10;;;;;;;;;;5067304;28;20488;-74
2022/11/11 06:28:40;;;;;;;12.70;9.30;;;;;;;;;;5056998;28;20496;-74
2022/11/11 06:31:34;;;;;;;10.30;9.07;;;;;;;;;;5052180;28;20477;-74
2022/11/11 06:34:24;;;;;;;11.00;9.40;;;;;;;;;;5054903;28;20449;-74
2022/11/11 06:37:13;;;;;;;11.57;10.07;;;;;;;;;;5068540;28;20461;-74
2022/11/11 06:40:08;;;;;;;11.33;10.20;;;;;;;;;;5076469;28;20493;-75
2022/11/11 06:43:06;;;;;;;11.30;9.03;;;;;;;;;;5071516;28;20477;-75
2022/11/11 06:45:59;;;;;;;12.10;9.53;;;;;;;;;;5063002;28;20460;-74
2022/11/11 06:48:50;;;;;;;15.33;11.53;;;;;;;;;;5058969;28;20449;-75
2022/11/11 06:51:41;;;;;;;15.73;10.57;;;;;;;;;;5052425;28;20485;-75
2022/11/11 06:54:29;;;;;;;12.73;11.43;;;;;;;;;;5059938;28;20945;-74
2022/11/11 06:57:20;;;;;;;11.70;10.03;;;;;;;;;;5062282;28;21033;-75
2022/11/11 07:00:09;;;;;;;15.67;10.93;;;;;;;;;;5063888;28;21110;-75
2022/11/11 07:02:58;;;;;;;18.13;11.27;;;;;;;;;;5054059;28;20702;-75
2022/11/11 07:05:47;;;;;;;18.23;12.30;;;;;;;;;;5049415;28;20993;-74
2022/11/11 07:08:37;;;;;;;15.57;12.20;;;;;;;;;;5052486;28;20507;-74
2022/11/11 07:11:27;;;;;;;16.90;12.13;;;;;;;;;;5053969;28;20482;-75
2022/11/11 07:14:18;;;;;;;16.07;12.00;;;;;;;;;;5062858;28;20453;-74
2022/11/11 07:17:06;;;;;;;12.70;11.40;;;;;;;;;;5073752;28;20469;-75
2022/11/11 07:19:55;;;;;;;17.50;12.60;;;;;;;;;;5076150;28;20582;-74
2022/11/11 07:22:44;;;;;;;15.30;11.67;;;;;;;;;;5081579;28;20598;-74
2022/11/11 07:25:35;;;;;;;15.10;12.40;;;;;;;;;;5080723;28;20474;-74
2022/11/11 07:28:24;;;;;;;17.37;11.67;;;;;;;;;;5075672;28;20924;-74
2022/11/11 07:31:14;;;;;;;18.83;12.23;;;;;;;;;;5076801;28;20520;-74
2022/11/11 07:34:03;;;;;;;16.10;12.30;;;;;;;;;;5072677;28;20465;-74
2022/11/11 07:36:52;;;;;;;20.03;12.10;;;;;;;;;;5071689;28;20866;-74
2022/11/11 07:39:40;;;;;;;18.47;12.73;;;;;;;;;;5075028;28;20545;-74
2022/11/11 07:42:29;;;;;;;15.93;12.07;;;;;;;;;;5077009;28;21020;-74
2022/11/11 07:45:19;;;;;;;15.30;12.67;;;;;;;;;;5064695;28;20582;-75
2022/11/11 07:48:09;;;;;;;14.20;12.63;;;;;;;;;;5059587;28;21066;-75
2022/11/11 07:50:58;;;;;;;19.60;13.20;;;;;;;;;;5072522;28;20543;-74
2022/11/11 07:53:47;;;;;;;15.23;12.33;;;;;;;;;;5063513;28;20460;-74
2022/11/11 07:56:35;;;;;;;15.03;13.00;;;;;;;;;;5057970;28;20450;-74
2022/11/11 07:59:24;;;;;;;15.17;13.13;;;;;;;;;;5066993;28;20829;-74
2022/11/11 08:02:13;;;;;;;13.73;12.00;;;;;;;;;;5081662;28;20569;-74
2022/11/11 08:05:03;;;;;;;20.03;12.60;;;;;;;;;;5080836;28;20541;-74
2022/11/11 08:07:52;;;;;;;18.00;14.67;;;;;;;;;;5060188;28;20461;-75
2022/11/11 08:10:40;;;;;;;19.10;14.13;;;;;;;;;;5062072;28;20480;-75
2022/11/11 08:13:40;;;;;;;20.20;13.40;;;;;;;;;;5056250;28;20576;-74
2022/11/11 08:16:29;;;;;;;15.20;12.80;;;;;;;;;;5067093;28;22216;-76
2022/11/11 08:19:18;;;;;;;16.17;13.70;;;;;;;;;;5055624;28;20499;-74
2022/11/11 08:22:08;;;;;;;20.33;13.33;;;;;;;;;;5060658;28;20490;-75
2022/11/11 08:24:56;;;;;;;18.77;13.63;;;;;;;;;;5059404;28;20449;-75
2022/11/11 08:27:57;;;;;;;14.30;12.77;;;;;;;;;;5062794;28;22231;-75
2022/11/11 08:30:47;;;;;;;18.40;13.67;;;;;;;;;;5068981;28;20476;-75
2022/11/11 08:33:36;;;;;;;19.00;14.20;;;;;;;;;;5059274;28;20488;-74
2022/11/11 08:36:25;;;;;;;19.37;14.10;;;;;;;;;;5059754;28;20469;-74
2022/11/11 08:39:15;;;;;;;19.50;14.90;;;;;;;;;;5060723;28;20577;-74
2022/11/11 08:42:04;;;;;;;17.03;13.50;;;;;;;;;;5075100;28;21107;-74
2022/11/11 08:44:53;;;;;;;18.90;14.20;;;;;;;;;;5075997;28;20445;-74
2022/11/11 08:47:45;;;;;;;17.10;14.43;;;;;;;;;;5075436;28;20477;-74
2022/11/11 08:50:37;;;;;;;17.43;14.47;;;;;;;;;;5074657;28;20602;-74
2022/11/11 08:53:25;;;;;;;16.53;13.03;;;;;;;;;;5070452;28;20461;-75
2022/11/11 08:56:19;;;;;;;17.53;14.40;;;;;;;;;;5065916;28;21054;-74
2022/11/11 08:59:08;;;;;;;19.93;13.90;;;;;;;;;;5063836;28;20559;-75
2022/11/11 09:01:57;;;;;;;16.70;13.97;;;;;;;;;;5067880;28;20492;-74
2022/11/11 09:04:46;;;;;;;15.33;13.80;;;;;;;;;;5057377;28;20456;-74
2022/11/11 09:07:41;;;;;;;23.30;14.23;;;;;;;;;;5068864;28;20457;-74
2022/11/11 09:10:30;;;;;;;19.30;14.50;;;;;;;;;;5056858;28;20486;-75
2022/11/11 09:13:20;;;;;;;18.23;14.37;;;;;;;;;;5054416;28;20449;-74
2022/11/11 09:16:09;;;;;;;20.70;14.90;;;;;;;;;;5072210;28;20584;-74
2022/11/11 09:18:58;;;;;;;16.90;14.47;;;;;;;;;;5066897;28;20452;-75
2022/11/11 09:21:47;;;;;;;17.90;15.07;;;;;;;;;;5071653;28;20495;-74
2022/11/11 09:24:35;;;;;;;17.03;14.90;;;;;;;;;;5068174;28;20453;-74
2022/11/11 09:27:24;;;;;;;19.53;15.57;;;;;;;;;;5079181;28;20445;-74
2022/11/11 09:30:14;;;;;;;15.90;14.20;;;;;;;;;;5078598;28;20481;-74
2022/11/11 09:33:04;;;;;;;20.53;16.00;;;;;;;;;;5077706;28;20453;-74
2022/11/11 09:35:52;;;;;;;18.43;15.37;;;;;;;;;;5076495;28;20457;-74
2022/11/11 09:38:41;;;;;;;21.80;15.77;;;;;;;;;;5082563;28;20460;-75
2022/11/11 09:41:35;;;;;;;20.20;15.73;;;;;;;;;;5078082;28;20477;-75
2022/11/11 09:44:31;;;;;;;16.37;14.63;;;;;;;;;;5077246;28;20632;-74
2022/11/11 09:47:23;;;;;;;20.87;16.20;;;;;;;;;;5077094;28;20457;-75
2022/11/11 09:50:13;;;;;;;19.13;15.63;;;;;;;;;;5052114;28;20489;-74
2022/11/11 09:53:08;;;;;;;20.63;15.30;;;;;;;;;;5075112;28;20461;-74
2022/11/11 09:55:59;;;;;;;18.10;14.00;;;;;;;;;;5065300;28;20587;-75
2022/11/11 09:58:49;;;;;;;22.70;15.27;;;;;;;;;;5077962;28;20450;-74
2022/11/11 10:01:42;;;;;;;18.27;15.47;;;;;;;;;;5054941;28;20492;-74
2022/11/11 10:04:36;;;;;;;18.30;14.83;;;;;;;;;;5064018;28;20449;-74
2022/11/11 10:07:34;;;;;;;17.53;15.57;;;;;;;;;;5056538;28;20856;-75
2022/11/11 10:10:29;;;;;;;17.33;13.70;;;;;;;;;;5052442;28;20874;-74
2022/11/11 10:13:21;;;;;;;19.70;15.00;;;;;;;;;;5059822;28;20472;-74
2022/11/11 10:16:13;;;;;;;17.47;15.47;;;;;;;;;;5060047;28;20500;-74
2022/11/11 10:19:07;;;;;;;19.60;15.50;;;;;;;;;;5057138;28;20575;-74
2022/11/11 10:22:01;;;;;;;15.83;14.10;;;;;;;;;;5079045;28;20517;-74
2022/11/11 10:25:11;;;;;;;19.63;14.43;;;;;;;;;;5074731;28;20478;-74
2022/11/11 10:28:00;;;;;;;17.80;14.20;;;;;;;;;;5057477;28;20461;-74
2022/11/11 10:30:51;;;;;;;18.40;13.90;;;;;;;;;;5054830;28;20481;-74
2022/11/11 10:33:44;;;;;;;19.13;16.20;;;;;;;;;;5061724;28;20450;-74
2022/11/11 10:36:43;;;;;;;18.20;15.20;;;;;;;;;;5058353;28;20821;-76
2022/11/11 10:39:45;;;;;;;16.00;14.30;;;;;;;;;;5071320;28;20464;-75
2022/11/11 10:42:34;;;;;;;18.00;14.80;;;;;;;;;;5060678;28;20469;-73
2022/11/11 10:45:33;;;;;;;18.03;13.87;;;;;;;;;;5068183;28;20450;-76
2022/11/11 10:48:25;;;;;;;15.90;13.77;;;;;;;;;;5071520;28;20982;-74
2022/11/11 10:51:15;;;;;;;18.63;15.23;;;;;;;;;;5072831;28;20552;-75
2022/11/11 10:54:08;;;;;;;18.63;14.90;;;;;;;;;;5072935;28;20454;-76
2022/11/11 10:57:01;;;;;;;16.33;13.93;;;;;;;;;;5066581;28;20457;-75
2022/11/11 10:59:54;;;;;;;17.60;13.93;;;;;;;;;;5053468;28;20551;-73
2022/11/11 11:02:49;;;;;;;16.90;14.00;;;;;;;;;;5049996;28;20489;-75
2022/11/11 11:05:42;;;;;;;18.40;14.60;;;;;;;;;;5060273;28;20549;-75
2022/11/11 11:08:35;;;;;;;18.73;14.20;;;;;;;;;;5050888;28;20454;-75
2022/11/11 11:11:25;;;;;;;15.23;13.60;;;;;;;;;;5055667;28;20472;-75
2022/11/11 11:14:18;;;;;;;15.00;13.43;;;;;;;;;;5052089;28;20546;-75
2022/11/11 11:17:14;;;;;;;15.57;12.87;;;;;;;;;;5054313;28;20478;-75
2022/11/11 11:20:10;;;;;;;16.87;14.50;;;;;;;;;;5076419;28;20449;-74
2022/11/11 11:23:00;;;;;;;16.13;13.30;;;;;;;;;;5076220;28;20482;-74
2022/11/11 11:25:53;;;;;;;17.53;13.73;;;;;;;;;;5081310;28;20449;-74
2022/11/11 11:28:53;;;;;;;15.97;13.57;;;;;;;;;;5088324;28;20472;-74
2022/11/11 11:31:46;;;;;;;18.70;13.53;;;;;;;;;;5098461;28;20485;-75
2022/11/11 11:34:55;;;;;;;16.00;14.30;;;;;;;;;;5100506;28;20456;-75
2022/11/11 11:37:49;;;;;;;17.43;13.80;;;;;;;;;;5102631;28;20473;-76
2022/11/11 11:40:48;;;;;;;15.83;14.13;;;;;;;;;;5103593;28;20473;-74
2022/11/11 11:43:38;;;;;;;18.67;14.10;;;;;;;;;;5099208;28;20551;-75
2022/11/11 11:46:28;;;;;;;15.20;13.57;;;;;;;;;;5082130;28;20480;-74
2022/11/11 11:49:27;;;;;;;18.17;14.80;;;;;;;;;;5058321;28;20454;-74
2022/11/11 11:52:19;;;;;;;17.87;13.27;;;;;;;;;;5077642;28;20476;-74
2022/11/11 11:55:13;;;;;;;19.17;14.00;;;;;;;;;;5065618;28;20966;-74
2022/11/11 11:58:10;;;;;;;16.70;13.53;;;;;;;;;;5055689;28;20457;-74
2022/11/11 12:01:03;;;;;;;14.40;12.90;;;;;;;;;;5057515;28;20477;-74
2022/11/11 12:04:05;;;;;;;16.77;13.23;;;;;;;;;;5038510;28;22370;-75
2022/11/11 12:07:03;;;;;;;15.23;13.10;;;;;;;;;;5058984;28;20444;-76
2022/11/11 12:09:59;;;;;;;15.77;14.07;;;;;;;;;;5061102;28;20457;-73
2022/11/11 12:12:56;;;;;;;20.70;14.07;;;;;;;;;;5054982;28;20622;-74
2022/11/11 12:15:57;;;;;;;14.87;13.30;;;;;;;;;;5057194;28;20517;-75
2022/11/11 12:19:04;;;;;;;15.97;13.73;;;;;;;;;;5071079;28;21017;-74
2022/11/11 12:22:00;;;;;;;15.90;14.20;;;;;;;;;;5074952;28;20484;-74
2022/11/11 12:24:54;;;;;;;18.60;15.50;;;;;;;;;;5061097;28;20450;-74
2022/11/11 12:27:47;;;;;;;19.80;14.70;;;;;;;;;;5075366;28;21160;-74
2022/11/11 12:30:39;;;;;;;17.53;13.97;;;;;;;;;;5072477;28;20837;-74
2022/11/11 12:33:43;;;;;;;14.60;12.93;;;;;;;;;;5078846;28;20460;-75
2022/11/11 12:36:36;;;;;;;19.50;14.60;;;;;;;;;;5096807;28;20459;-75
2022/11/11 12:39:36;;;;;;;20.20;15.63;;;;;;;;;;5098017;28;20451;-75
2022/11/11 12:42:35;;;;;;;22.00;13.60;;;;;;;;;;5083713;28;20477;-74
2022/11/11 12:45:26;;;;;;;14.67;13.00;;;;;;;;;;5074874;28;20457;-75
2022/11/11 12:48:23;;;;;;;16.47;14.10;;;;;;;;;;5080292;28;20454;-75
2022/11/11 12:51:15;;;;;;;16.33;13.63;;;;;;;;;;5088304;28;21027;-76
2022/11/11 12:54:12;;;;;;;15.10;13.30;;;;;;;;;;5089151;28;20979;-75
2022/11/11 12:57:09;;;;;;;15.20;13.60;;;;;;;;;;5094110;28;20511;-75
2022/11/11 13:00:04;;;;;;;15.50;12.93;;;;;;;;;;5090083;28;20452;-75
2022/11/11 13:03:05;;;;;;;15.37;13.77;;;;;;;;;;5080292;28;20543;-75
2022/11/11 13:05:59;;;;;;;17.00;14.20;;;;;;;;;;5078718;28;20470;-75
2022/11/11 13:09:12;;;;;;;20.23;14.27;;;;;;;;;;5077468;28;20452;-74
2022/11/11 13:12:04;;;;;;;15.27;12.30;;;;;;;;;;5047042;28;20990;-74
2022/11/11 13:14:58;;;;;;;16.77;13.27;;;;;;;;;;5081492;28;20472;-75
2022/11/11 13:17:48;;;;;;;17.13;13.33;;;;;;;;;;5081238;28;20509;-74
2022/11/11 13:20:43;;;;;;;14.37;12.83;;;;;;;;;;5081658;28;20488;-74
2022/11/11 13:23:35;;;;;;;14.00;12.17;;;;;;;;;;5077042;28;20460;-74
2022/11/11 13:26:27;;;;;;;14.93;13.27;;;;;;;;;;5075807;28;20544;-74
2022/11/11 13:29:38;;;;;;;14.70;13.17;;;;;;;;;;5079347;28;20478;-74
2022/11/11 13:32:28;;;;;;;17.57;13.60;;;;;;;;;;5072544;28;20489;-74
2022/11/11 13:35:22;;;;;;;15.10;12.80;;;;;;;;;;5062053;28;20454;-74
2022/11/11 13:38:13;;;;;;;14.57;13.13;;;;;;;;;;5070016;28;20498;-75
2022/11/11 13:41:04;;;;;;;15.60;14.00;;;;;;;;;;5053063;28;20492;-75
2022/11/11 13:43:54;;;;;;;15.20;13.60;;;;;;;;;;5067765;28;21465;-74
2022/11/11 13:46:44;;;;;;;15.73;13.60;;;;;;;;;;5070130;28;20548;-74
2022/11/11 13:49:41;;;;;;;15.73;14.13;;;;;;;;;;5074049;28;20482;-74
2022/11/11 13:52:33;;;;;;;14.70;12.80;;;;;;;;;;5070121;28;20528;-74
2022/11/11 13:55:25;;;;;;;15.30;13.70;;;;;;;;;;5079202;28;20461;-74
2022/11/11 13:58:23;;;;;;;15.50;13.13;;;;;;;;;;5071031;28;20452;-74
2022/11/11 14:01:12;;;;;;;15.17;13.57;;;;;;;;;;5064174;28;20547;-74
2022/11/11 14:04:07;;;;;;;17.00;15.20;;;;;;;;;;5059131;28;20473;-75
2022/11/11 14:06:56;;;;;;;15.87;14.17;;;;;;;;;;5076160;28;20530;-75
2022/11/11 14:09:57;;;;;;;15.90;14.30;;;;;;;;;;5065669;28;20991;-75
2022/11/11 14:12:46;;;;;;;16.67;14.13;;;;;;;;;;5056543;28;20476;-74
2022/11/11 14:15:40;;;;;;;14.60;13.10;;;;;;;;;;5061654;28;20478;-75
2022/11/11 14:18:39;;;;;;;15.00;13.40;;;;;;;;;;5069486;28;20466;-75
2022/11/11 14:21:44;;;;;;;16.20;14.60;;;;;;;;;;5069681;28;20621;-74
2022/11/11 14:24:40;;;;;;;15.50;14.00;;;;;;;;;;5072488;28;20475;-74
2022/11/11 14:27:31;;;;;;;15.03;13.50;;;;;;;;;;5064308;28;20886;-74
2022/11/11 14:30:28;;;;;;;14.73;13.30;;;;;;;;;;5055173;28;20466;-74
2022/11/11 14:33:23;;;;;;;15.57;13.93;;;;;;;;;;5056876;28;20510;-74
2022/11/11 14:36:18;;;;;;;16.40;13.80;;;;;;;;;;5047231;28;21754;-75
2022/11/11 14:39:10;;;;;;;15.00;12.87;;;;;;;;;;5053601;28;20513;-74
2022/11/11 14:41:59;;;;;;;15.03;13.43;;;;;;;;;;5061631;28;20579;-74
2022/11/11 14:44:49;;;;;;;14.33;12.60;;;;;;;;;;5071290;28;20505;-75
2022/11/11 14:47:38;;;;;;;14.03;12.47;;;;;;;;;;5061173;28;20492;-74
2022/11/11 14:50:43;;;;;;;13.57;11.93;;;;;;;;;;5054106;28;20469;-74
2022/11/11 14:53:38;;;;;;;14.37;12.50;;;;;;;;;;5052801;28;20441;-74
2022/11/11 14:56:28;;;;;;;15.37;12.83;;;;;;;;;;5059750;28;20457;-75
2022/11/11 14:59:21;;;;;;;13.53;12.20;;;;;;;;;;5052888;28;20450;-75
2022/11/11 15:02:20;;;;;;;14.73;12.53;;;;;;;;;;5056869;28;22643;-75
2022/11/11 15:05:14;;;;;;;13.23;11.70;;;;;;;;;;5051463;28;20498;-74
2022/11/11 15:08:06;;;;;;;12.83;11.43;;;;;;;;;;5048377;28;20464;-74
2022/11/11 15:11:06;;;;;;;15.00;11.47;;;;;;;;;;5064491;28;22160;-75
2022/11/11 15:14:04;;;;;;;12.40;10.77;;;;;;;;;;5063907;28;20445;-75
2022/11/11 15:17:03;;;;;;;14.57;10.53;;;;;;;;;;5057278;28;20466;-75
2022/11/11 15:19:59;;;;;;;12.20;11.00;;;;;;;;;;5057897;28;20453;-75
2022/11/11 15:22:52;;;;;;;12.80;11.50;;;;;;;;;;5059722;28;20473;-74
2022/11/11 15:25:50;;;;;;;12.33;10.70;;;;;;;;;;5061048;28;20535;-74
2022/11/11 15:28:46;;;;;;;11.00;9.70;;;;;;;;;;5061229;28;20472;-74
2022/11/11 15:31:43;;;;;;;12.10;10.80;;;;;;;;;;5051589;28;20530;-74
2022/11/11 15:34:41;;;;;;;15.13;12.57;;;;;;;;;;5058748;28;20456;-74
2022/11/11 15:37:33;;;;;;;15.50;10.80;;;;;;;;;;5059787;28;20825;-74
2022/11/11 15:40:22;;;;;;;11.47;10.27;;;;;;;;;;5057283;28;20476;-74
2022/11/11 15:43:14;;;;;;;12.50;10.60;;;;;;;;;;5035907;28;20587;-74
2022/11/11 15:46:10;;;;;;;12.10;10.80;;;;;;;;;;5065507;28;20611;-75
2022/11/11 15:48:59;;;;;;;10.93;9.83;;;;;;;;;;5038152;28;20487;-75
2022/11/11 15:51:57;;;;;;;11.60;10.50;;;;;;;;;;5054705;28;20564;-76
2022/11/11 15:54:47;;;;;;;10.87;9.70;;;;;;;;;;5051176;28;21049;-75
2022/11/11 15:57:37;;;;;;;10.90;9.70;;;;;;;;;;5062063;28;20464;-74
2022/11/11 16:00:27;;;;;;;11.47;10.37;;;;;;;;;;5048553;28;20588;-74
2022/11/11 16:03:17;;;;;;;12.00;10.70;;;;;;;;;;5055061;28;20441;-75
2022/11/11 16:06:15;;;;;;;12.13;10.80;;;;;;;;;;5041452;28;20542;-74
2022/11/11 16:09:04;;;;;;;12.10;10.67;;;;;;;;;;5048940;28;21305;-74
2022/11/11 16:12:03;;;;;;;11.37;10.17;;;;;;;;;;5047574;28;20481;-75
2022/11/11 16:14:54;;;;;;;10.83;9.73;;;;;;;;;;5050207;28;20501;-75
2022/11/11 16:17:44;;;;;;;11.93;10.80;;;;;;;;;;5062328;28;21021;-75
2022/11/11 16:20:35;;;;;;;10.33;9.17;;;;;;;;;;5057876;28;20502;-75
2022/11/11 16:23:27;;;;;;;12.40;9.97;;;;;;;;;;5053505;28;20532;-75
2022/11/11 16:26:19;;;;;;;13.43;10.50;;;;;;;;;;5051847;28;20782;-75
2022/11/11 16:29:13;;;;;;;11.10;10.00;;;;;;;;;;5045847;28;20492;-74
2022/11/11 16:32:18;;;;;;;11.73;10.47;;;;;;;;;;5036803;28;20573;-75
2022/11/11 16:35:23;;;;;;;11.60;10.40;;;;;;;;;;5057147;28;20528;-75
2022/11/11 16:38:12;;;;;;;12.13;10.27;;;;;;;;;;5064468;28;20449;-75
2022/11/11 16:41:01;;;;;;;12.70;10.57;;;;;;;;;;5058870;28;20482;-75
2022/11/11 16:43:49;;;;;;;12.93;10.77;;;;;;;;;;5056317;28;20446;-75
2022/11/11 16:46:44;;;;;;;11.73;10.60;;;;;;;;;;5073880;28;20471;-74
2022/11/11 16:49:36;;;;;;;12.37;10.80;;;;;;;;;;5067700;28;20492;-76
2022/11/11 16:52:26;;;;;;;12.00;10.80;;;;;;;;;;5061562;28;20486;-76
2022/11/11 16:55:18;;;;;;;12.90;11.23;;;;;;;;;;5059845;28;20456;-77
2022/11/11 16:58:11;;;;;;;12.40;11.10;;;;;;;;;;5057553;28;20542;-76
2022/11/11 17:01:01;;;;;;;13.50;12.13;;;;;;;;;;5060690;28;20481;-76
2022/11/11 17:04:02;;;;;;;12.40;11.10;;;;;;;;;;5062238;28;20479;-76
2022/11/11 17:06:55;;;;;;;12.67;10.63;;;;;;;;;;5052541;28;20487;-76
2022/11/11 17:09:43;;;;;;;12.53;11.33;;;;;;;;;;5069346;28;20452;-76
2022/11/11 17:12:32;;;;;;;12.37;11.17;;;;;;;;;;5081487;28;21059;-76
2022/11/11 17:15:23;;;;;;;13.70;12.20;;;;;;;;;;5084407;28;20480;-76
2022/11/11 17:18:13;;;;;;;12.20;11.00;;;;;;;;;;5062958;28;20468;-75
2022/11/11 17:21:04;;;;;;;10.90;9.70;;;;;;;;;;5059429;28;20504;-75
2022/11/11 17:23:54;;;;;;;12.23;10.97;;;;;;;;;;5064036;28;20587;-75
2022/11/11 17:26:43;;;;;;;12.27;10.93;;;;;;;;;;5064524;28;20663;-75
2022/11/11 17:29:35;;;;;;;13.50;11.70;;;;;;;;;;5079601;28;20456;-74
2022/11/11 17:32:26;;;;;;;13.67;11.80;;;;;;;;;;5064902;28;20958;-75
2022/11/11 17:35:16;;;;;;;12.63;11.33;;;;;;;;;;5057195;28;20536;-75
2022/11/11 17:38:06;;;;;;;12.60;11.30;;;;;;;;;;5048070;28;20899;-75
2022/11/11 17:40:56;;;;;;;14.83;13.33;;;;;;;;;;5069663;28;20472;-75
2022/11/11 17:43:45;;;;;;;13.10;11.80;;;;;;;;;;5060033;28;21098;-74
2022/11/11 17:46:35;;;;;;;13.80;12.07;;;;;;;;;;5069718;28;20485;-74
2022/11/11 17:49:24;;;;;;;14.10;12.70;;;;;;;;;;5060220;28;20671;-75
2022/11/11 17:52:33;;;;;;;13.63;12.23;;;;;;;;;;5072399;28;20473;-74
2022/11/11 17:55:22;;;;;;;13.20;11.90;;;;;;;;;;5063981;28;20460;-75
2022/11/11 17:58:12;;;;;;;12.60;11.30;;;;;;;;;;5060037;28;20458;-75
2022/11/11 18:01:05;;;;;;;12.97;11.70;;;;;;;;;;5062576;28;20537;-75
2022/11/11 18:03:56;;;;;;;14.70;12.20;;;;;;;;;;5058035;28;21442;-75
2022/11/11 18:06:44;;;;;;;14.77;12.43;;;;;;;;;;5055920;28;20481;-75
2022/11/11 18:09:33;;;;;;;14.07;12.47;;;;;;;;;;5064117;28;20541;-75
2022/11/11 18:12:23;;;;;;;13.73;11.77;;;;;;;;;;5058338;28;20473;-75